createdAt,value
2022-09-18T00:01:10.789Z,6.73
2022-09-18T00:03:39.151Z,6.71
2022-09-18T00:06:09.245Z,6.84
2022-09-18T00:08:38.459Z,6.83
2022-09-18T00:11:09.753Z,6.83
2022-09-18T00:13:39.068Z,6.88
2022-09-18T00:16:08.249Z,6.89
2022-09-18T00:18:36.155Z,6.91
2022-09-18T00:21:05.806Z,6.79
2022-09-18T00:23:33.795Z,6.82
2022-09-18T00:26:01.554Z,6.77
2022-09-18T00:28:30.733Z,6.75
2022-09-18T00:31:05.533Z,6.88
2022-09-18T00:33:33.675Z,6.89
2022-09-18T00:36:03.282Z,6.89
2022-09-18T00:38:32.714Z,6.87
2022-09-18T00:41:02.041Z,6.93
2022-09-18T00:43:34.488Z,6.92
2022-09-18T00:46:25.517Z,6.91
2022-09-18T00:49:03.084Z,6.90
2022-09-18T00:51:34.370Z,6.83
2022-09-18T00:54:08.031Z,6.72
2022-09-18T00:56:36.165Z,6.74
2022-09-18T00:59:05.626Z,6.67
2022-09-18T01:01:33.410Z,6.69
2022-09-18T01:04:01.203Z,6.64
2022-09-18T01:06:37.665Z,6.63
2022-09-18T01:09:27.755Z,6.53
2022-09-18T01:12:03.162Z,6.57
2022-09-18T01:14:42.164Z,6.64
2022-09-18T01:17:18.667Z,6.67
2022-09-18T01:20:26.380Z,6.70
2022-09-18T01:23:14.282Z,6.74
2022-09-18T01:25:57.098Z,6.75
2022-09-18T01:28:34.032Z,6.72
2022-09-18T01:31:09.277Z,6.78
2022-09-18T01:33:41.114Z,6.91
2022-09-18T01:36:11.970Z,6.84
2022-09-18T01:38:43.726Z,6.87
2022-09-18T01:41:15.555Z,6.88
2022-09-18T01:43:49.517Z,6.89
2022-09-18T01:46:20.862Z,6.93
2022-09-18T01:48:54.442Z,6.86
2022-09-18T01:51:25.169Z,6.83
2022-09-18T01:53:58.651Z,6.87
2022-09-18T01:56:29.400Z,6.84
2022-09-18T01:59:03.707Z,6.79
2022-09-18T02:01:44.046Z,6.76
2022-09-18T02:04:17.363Z,6.77
2022-09-18T02:06:52.681Z,6.77
2022-09-18T02:09:20.570Z,6.79
2022-09-18T02:11:51.825Z,6.83
2022-09-18T02:14:26.827Z,6.86
2022-09-18T02:17:08.368Z,6.89
2022-09-18T02:19:42.396Z,6.89
2022-09-18T02:22:13.529Z,6.88
2022-09-18T02:24:43.526Z,6.92
2022-09-18T02:27:14.716Z,6.94
2022-09-18T02:29:46.253Z,7.00
2022-09-18T02:32:15.208Z,6.97
2022-09-18T02:34:43.260Z,7.07
2022-09-18T02:37:28.391Z,7.09
2022-09-18T02:40:11.070Z,7.20
2022-09-18T02:42:48.684Z,7.20
2022-09-18T02:45:26.332Z,7.25
2022-09-18T02:48:18.303Z,7.25
2022-09-18T02:50:56.118Z,7.29
2022-09-18T02:53:30.705Z,7.25
2022-09-18T02:56:04.306Z,7.25
2022-09-18T02:58:40.580Z,7.26
2022-09-18T03:01:13.868Z,7.34
2022-09-18T03:03:42.712Z,7.33
2022-09-18T03:06:12.193Z,7.36
2022-09-18T03:08:40.331Z,7.42
2022-09-18T03:11:09.180Z,7.43
2022-09-18T03:13:37.203Z,7.44
2022-09-18T03:16:04.992Z,7.42
2022-09-18T03:18:34.113Z,7.47
2022-09-18T03:21:01.845Z,7.50
2022-09-18T03:23:29.636Z,7.50
2022-09-18T03:26:08.787Z,7.47
2022-09-18T03:28:36.579Z,7.57
2022-09-18T03:31:04.583Z,7.56
2022-09-18T03:33:35.137Z,7.54
2022-09-18T03:36:03.383Z,7.55
2022-09-18T03:38:31.618Z,7.51
2022-09-18T03:40:59.693Z,7.59
2022-09-18T03:43:27.702Z,7.58
2022-09-18T03:45:55.419Z,7.57
2022-09-18T03:48:23.248Z,7.55
2022-09-18T03:50:53.349Z,7.53
2022-09-18T03:53:22.378Z,7.55
2022-09-18T03:56:07.981Z,7.56
2022-09-18T03:58:35.710Z,7.53
2022-09-18T04:01:21.418Z,7.48
2022-09-18T04:04:24.251Z,7.49
2022-09-18T04:07:11.852Z,7.52
2022-09-18T04:10:09.336Z,7.61
2022-09-18T04:12:39.673Z,7.49
2022-09-18T04:15:16.475Z,7.62
2022-09-18T04:17:44.838Z,7.62
2022-09-18T04:20:13.053Z,7.60
2022-09-18T04:22:45.274Z,7.63
2022-09-18T04:25:13.055Z,7.64
2022-09-18T04:27:41.508Z,7.69
2022-09-18T04:30:10.636Z,7.68
2022-09-18T04:32:43.090Z,7.75
2022-09-18T04:35:11.212Z,7.72
2022-09-18T04:37:39.478Z,7.70
2022-09-18T04:40:09.580Z,7.71
2022-09-18T04:42:38.098Z,7.76
2022-09-18T04:45:08.595Z,7.73
2022-09-18T04:47:36.359Z,7.72
2022-09-18T04:50:08.708Z,7.73
2022-09-18T04:52:36.709Z,7.73
2022-09-18T04:55:05.685Z,7.73
2022-09-18T04:57:34.915Z,7.75
2022-09-18T05:00:04.501Z,7.74
2022-09-18T05:02:32.994Z,7.68
2022-09-18T05:05:00.732Z,7.71
2022-09-18T05:07:33.980Z,7.72
2022-09-18T05:10:02.083Z,7.78
2022-09-18T05:12:32.137Z,7.78
2022-09-18T05:15:01.360Z,7.75
2022-09-18T05:17:29.306Z,7.76
2022-09-18T05:20:02.513Z,7.75
2022-09-18T05:22:37.805Z,7.72
2022-09-18T05:25:10.568Z,7.77
2022-09-18T05:27:38.912Z,7.88
2022-09-18T05:30:10.999Z,7.91
2022-09-18T05:33:01.490Z,7.93
2022-09-18T05:35:32.878Z,7.78
2022-09-18T05:38:01.373Z,7.92
2022-09-18T05:40:33.641Z,7.91
2022-09-18T05:43:02.954Z,7.92
2022-09-18T05:45:34.680Z,7.97
2022-09-18T05:48:07.995Z,7.97
2022-09-18T05:50:37.343Z,7.93
2022-09-18T05:53:07.998Z,7.97
2022-09-18T05:55:44.808Z,7.92
2022-09-18T05:58:14.297Z,7.99
2022-09-18T06:00:45.604Z,7.91
2022-09-18T06:03:20.323Z,7.94
2022-09-18T06:06:00.345Z,8.02
2022-09-18T06:08:28.134Z,8.04
2022-09-18T06:10:56.006Z,8.08
2022-09-18T06:13:23.791Z,8.05
2022-09-18T06:15:56.075Z,8.13
2022-09-18T06:18:51.107Z,8.16
2022-09-18T06:21:19.973Z,8.21
2022-09-18T06:23:47.949Z,8.20
2022-09-18T06:26:25.086Z,8.22
2022-09-18T06:28:52.829Z,8.24
2022-09-18T06:31:22.207Z,8.29
2022-09-18T06:33:57.389Z,8.27
2022-09-18T06:36:25.236Z,8.24
2022-09-18T06:39:22.077Z,8.20
2022-09-18T06:41:52.870Z,8.21
2022-09-18T06:44:27.289Z,8.13
2022-09-18T06:47:04.832Z,8.04
2022-09-18T06:49:40.651Z,8.06
2022-09-18T06:52:08.403Z,8.06
2022-09-18T06:54:38.085Z,8.04
2022-09-18T06:57:07.865Z,8.02
2022-09-18T06:59:37.748Z,7.98
2022-09-18T07:02:18.717Z,8.02
2022-09-18T07:05:00.932Z,8.00
2022-09-18T07:07:28.836Z,7.97
2022-09-18T07:09:58.291Z,8.02
2022-09-18T07:12:36.945Z,7.96
2022-09-18T07:15:07.416Z,8.07
2022-09-18T07:17:37.279Z,8.02
2022-09-18T07:20:06.535Z,8.09
2022-09-18T07:22:44.941Z,8.13
2022-09-18T07:25:15.127Z,8.15
2022-09-18T07:27:44.712Z,8.21
2022-09-18T07:30:14.689Z,8.30
2022-09-18T07:32:45.708Z,8.30
2022-09-18T07:35:17.362Z,8.33
2022-09-18T07:37:45.228Z,8.28
2022-09-18T07:40:20.459Z,8.34
2022-09-18T07:43:10.838Z,8.38
2022-09-18T07:45:45.451Z,8.38
2022-09-18T07:48:14.856Z,8.34
2022-09-18T07:50:47.499Z,8.35
2022-09-18T07:53:17.590Z,8.39
2022-09-18T07:55:48.277Z,8.29
2022-09-18T07:58:16.072Z,8.38
2022-09-18T08:00:56.999Z,8.48
2022-09-18T08:03:27.350Z,8.46
2022-09-18T08:06:08.666Z,8.46
2022-09-18T08:08:37.132Z,8.42
2022-09-18T08:11:16.067Z,8.41
2022-09-18T08:13:55.547Z,8.58
2022-09-18T08:16:46.498Z,8.49
2022-09-18T08:19:47.920Z,8.45
2022-09-18T08:22:27.317Z,8.51
2022-09-18T08:24:57.387Z,8.44
2022-09-18T08:27:25.144Z,8.45
2022-09-18T08:29:53.958Z,8.44
2022-09-18T08:32:24.040Z,8.50
2022-09-18T08:34:54.563Z,8.52
2022-09-18T08:37:22.572Z,8.74
2022-09-18T08:40:31.787Z,8.81
2022-09-18T08:43:14.994Z,8.79
2022-09-18T08:45:56.016Z,8.95
2022-09-18T08:48:29.005Z,9.02
2022-09-18T08:51:04.746Z,9.15
2022-09-18T08:53:40.026Z,9.19
2022-09-18T08:56:40.798Z,9.08
2022-09-18T08:59:30.431Z,9.19
2022-09-18T09:02:14.473Z,9.18
2022-09-18T09:04:43.224Z,9.18
2022-09-18T09:07:26.040Z,9.32
2022-09-18T09:10:04.419Z,9.45
2022-09-18T09:12:44.297Z,9.50
2022-09-18T09:15:25.547Z,9.49
2022-09-18T09:18:13.921Z,9.53
2022-09-18T09:20:50.507Z,9.80
2022-09-18T09:23:30.012Z,9.69
2022-09-18T09:26:06.544Z,9.74
2022-09-18T09:29:01.333Z,9.77
2022-09-18T09:31:56.814Z,9.75
2022-09-18T09:34:44.447Z,9.55
2022-09-18T09:37:40.394Z,9.48
2022-09-18T09:40:19.120Z,9.62
2022-09-18T09:42:54.265Z,9.60
2022-09-18T09:45:29.512Z,9.72
2022-09-18T09:48:07.715Z,9.59
2022-09-18T09:50:46.080Z,9.73
2022-09-18T09:53:14.595Z,9.76
2022-09-18T09:55:53.234Z,9.79
2022-09-18T09:58:36.080Z,9.72
2022-09-18T10:01:12.661Z,9.92
2022-09-18T10:03:48.853Z,9.91
2022-09-18T10:06:40.121Z,9.86
2022-09-18T10:09:17.855Z,9.74
2022-09-18T10:11:57.435Z,9.70
2022-09-18T10:14:29.220Z,9.80
2022-09-18T10:16:59.055Z,9.92
2022-09-18T10:19:35.599Z,10.02
2022-09-18T10:22:07.433Z,10.16
2022-09-18T10:24:46.963Z,10.21
2022-09-18T10:27:19.005Z,10.20
2022-09-18T10:29:47.208Z,10.30
2022-09-18T10:32:36.719Z,10.32
2022-09-18T10:35:45.400Z,10.31
2022-09-18T10:38:29.527Z,10.22
2022-09-18T10:41:20.093Z,10.30
2022-09-18T10:43:57.181Z,10.33
2022-09-18T10:46:30.252Z,10.17
2022-09-18T10:49:00.349Z,10.16
2022-09-18T10:51:29.264Z,10.27
2022-09-18T10:54:04.580Z,10.27
2022-09-18T10:56:49.935Z,10.45
2022-09-18T10:59:35.895Z,10.66
2022-09-18T11:02:07.425Z,10.73
2022-09-18T11:04:36.949Z,10.74
2022-09-18T11:07:07.643Z,10.63
2022-09-18T11:09:40.059Z,10.52
2022-09-18T11:12:21.949Z,10.45
2022-09-18T11:14:57.005Z,10.35
2022-09-18T11:17:28.257Z,10.26
2022-09-18T11:19:58.388Z,10.11
2022-09-18T11:22:42.653Z,10.13
2022-09-18T11:25:21.459Z,10.03
2022-09-18T11:27:54.017Z,10.28
2022-09-18T11:30:27.606Z,10.53
2022-09-18T11:33:00.379Z,10.72
2022-09-18T11:35:33.708Z,10.70
2022-09-18T11:38:08.173Z,10.72
2022-09-18T11:40:45.048Z,10.65
2022-09-18T11:43:23.413Z,10.80
2022-09-18T11:46:02.068Z,10.78
2022-09-18T11:48:35.570Z,10.61
2022-09-18T11:51:06.473Z,10.99
2022-09-18T11:53:40.707Z,10.78
2022-09-18T11:56:15.282Z,10.43
2022-09-18T11:58:47.969Z,10.45
2022-09-18T12:01:26.947Z,10.30
2022-09-18T12:04:01.868Z,10.18
2022-09-18T12:06:37.303Z,9.90
2022-09-18T12:09:10.743Z,9.68
2022-09-18T12:11:49.817Z,9.82
2022-09-18T12:14:23.689Z,9.74
2022-09-18T12:17:19.039Z,9.79
2022-09-18T12:19:51.191Z,9.81
2022-09-18T12:22:27.478Z,9.72
2022-09-18T12:24:55.770Z,9.63
2022-09-18T12:27:50.332Z,9.58
2022-09-18T12:30:20.267Z,9.41
2022-09-18T12:33:13.548Z,9.26
2022-09-18T12:36:07.433Z,9.35
2022-09-18T12:38:51.086Z,9.43
2022-09-18T12:41:31.570Z,9.64
2022-09-18T12:44:13.325Z,9.52
2022-09-18T12:47:00.715Z,9.55
2022-09-18T12:49:46.847Z,9.55
2022-09-18T12:52:30.324Z,9.47
2022-09-18T12:55:16.104Z,9.47
2022-09-18T12:57:57.073Z,9.28
2022-09-18T13:00:25.521Z,9.15
2022-09-18T13:02:56.041Z,8.97
2022-09-18T13:05:30.869Z,8.88
2022-09-18T13:08:06.326Z,9.21
2022-09-18T13:10:39.137Z,9.40
2022-09-18T13:13:14.905Z,9.53
2022-09-18T13:15:47.086Z,9.79
2022-09-18T13:18:33.431Z,9.79
2022-09-18T13:21:06.526Z,10.13
2022-09-18T13:23:38.881Z,10.22
2022-09-18T13:26:09.288Z,10.31
2022-09-18T13:28:37.691Z,10.64
2022-09-18T13:31:26.297Z,10.63
2022-09-18T13:33:57.959Z,10.66
2022-09-18T13:36:29.863Z,10.71
2022-09-18T13:39:01.555Z,10.99
2022-09-18T13:41:30.297Z,11.12
2022-09-18T13:44:00.688Z,11.17
2022-09-18T13:46:39.621Z,11.36
2022-09-18T13:49:20.408Z,11.69
2022-09-18T13:51:49.741Z,11.72
2022-09-18T13:54:29.635Z,11.84
2022-09-18T13:57:31.537Z,12.09
2022-09-18T14:00:06.765Z,12.01
2022-09-18T14:02:40.973Z,11.97
2022-09-18T14:05:33.626Z,11.92
2022-09-18T14:08:38.982Z,11.81
2022-09-18T14:11:17.581Z,11.83
2022-09-18T14:13:53.992Z,11.76
2022-09-18T14:16:29.205Z,11.47
2022-09-18T14:19:01.990Z,11.38
2022-09-18T14:21:32.834Z,11.35
2022-09-18T14:24:19.160Z,11.40
2022-09-18T14:26:59.672Z,11.26
2022-09-18T14:29:30.693Z,11.37
2022-09-18T14:31:59.866Z,11.49
2022-09-18T14:34:33.713Z,11.25
2022-09-18T14:37:03.614Z,11.32
2022-09-18T14:39:36.145Z,11.33
2022-09-18T14:42:06.159Z,11.19
2022-09-18T14:44:35.327Z,11.18
2022-09-18T14:47:06.279Z,11.24
2022-09-18T14:49:35.858Z,11.36
2022-09-18T14:52:05.040Z,11.24
2022-09-18T14:54:40.869Z,11.33
2022-09-18T14:57:15.609Z,11.47
2022-09-18T14:59:43.843Z,11.38
2022-09-18T15:02:18.935Z,11.43
2022-09-18T15:04:47.174Z,11.44
2022-09-18T15:07:18.642Z,11.30
2022-09-18T15:09:49.925Z,10.97
2022-09-18T15:12:20.432Z,11.07
2022-09-18T15:14:48.302Z,11.00
2022-09-18T15:17:20.167Z,10.90
2022-09-18T15:19:59.492Z,10.98
2022-09-18T15:22:28.404Z,11.04
2022-09-18T15:25:00.783Z,11.03
2022-09-18T15:27:30.019Z,10.97
2022-09-18T15:30:01.329Z,11.03
2022-09-18T15:32:37.668Z,11.04
2022-09-18T15:35:08.703Z,11.07
2022-09-18T15:37:38.319Z,11.06
2022-09-18T15:40:10.447Z,10.96
2022-09-18T15:42:41.410Z,10.94
2022-09-18T15:45:23.422Z,11.05
2022-09-18T15:47:51.396Z,10.94
2022-09-18T15:50:37.994Z,10.91
2022-09-18T15:53:19.281Z,10.81
2022-09-18T15:55:55.995Z,10.91
2022-09-18T15:58:33.540Z,11.17
2022-09-18T16:01:04.311Z,11.37
2022-09-18T16:03:33.203Z,11.43
2022-09-18T16:06:05.016Z,11.16
2022-09-18T16:08:34.992Z,10.95
2022-09-18T16:11:06.397Z,10.80
2022-09-18T16:13:37.715Z,10.77
2022-09-18T16:16:25.317Z,10.66
2022-09-18T16:18:56.672Z,10.54
2022-09-18T16:21:28.085Z,10.55
2022-09-18T16:23:59.162Z,10.49
2022-09-18T16:26:31.722Z,10.52
2022-09-18T16:29:02.297Z,10.52
2022-09-18T16:31:32.206Z,10.53
2022-09-18T16:34:02.206Z,10.53
2022-09-18T16:36:34.252Z,10.49
2022-09-18T16:39:05.158Z,10.49
2022-09-18T16:41:35.105Z,10.52
2022-09-18T16:44:05.181Z,10.55
2022-09-18T16:46:38.707Z,10.58
2022-09-18T16:49:06.568Z,10.53
2022-09-18T16:51:34.431Z,10.52
2022-09-18T16:54:02.567Z,10.52
2022-09-18T16:56:34.762Z,10.45
2022-09-18T16:59:06.031Z,10.41
2022-09-18T17:01:54.190Z,10.46
2022-09-18T17:04:24.292Z,10.50
2022-09-18T17:06:52.126Z,10.46
2022-09-18T17:09:21.295Z,10.46
2022-09-18T17:11:49.077Z,10.47
2022-09-18T17:14:18.625Z,10.46
2022-09-18T17:16:46.585Z,10.41
2022-09-18T17:19:14.369Z,10.48
2022-09-18T17:21:42.521Z,10.48
2022-09-18T17:24:11.213Z,10.51
2022-09-18T17:26:40.587Z,10.48
2022-09-18T17:29:10.384Z,10.49
2022-09-18T17:31:39.937Z,10.37
2022-09-18T17:34:08.356Z,10.46
2022-09-18T17:36:36.850Z,10.51
2022-09-18T17:39:05.504Z,10.49
2022-09-18T17:41:34.363Z,10.47
2022-09-18T17:44:02.637Z,10.46
2022-09-18T17:46:30.559Z,10.44
2022-09-18T17:49:00.586Z,10.42
2022-09-18T17:51:29.435Z,10.42
2022-09-18T17:53:59.986Z,10.36
2022-09-18T17:56:29.963Z,10.38
2022-09-18T17:58:59.819Z,10.35
2022-09-18T18:01:29.540Z,10.29
2022-09-18T18:03:57.422Z,10.30
2022-09-18T18:06:26.949Z,10.27
2022-09-18T18:08:56.070Z,10.25
2022-09-18T18:11:25.180Z,10.15
2022-09-18T18:13:54.893Z,10.19
2022-09-18T18:16:25.157Z,10.29
2022-09-18T18:18:56.808Z,10.22
2022-09-18T18:21:27.291Z,10.23
2022-09-18T18:23:59.420Z,10.24
2022-09-18T18:26:28.971Z,10.22
2022-09-18T18:28:57.206Z,10.24
2022-09-18T18:31:26.059Z,10.21
2022-09-18T18:33:55.447Z,10.22
2022-09-18T18:36:27.067Z,10.22
2022-09-18T18:38:56.607Z,10.17
2022-09-18T18:41:26.655Z,10.17
2022-09-18T18:43:56.770Z,10.17
2022-09-18T18:46:26.398Z,10.09
2022-09-18T18:49:02.790Z,10.12
2022-09-18T18:51:34.590Z,10.21
2022-09-18T18:54:03.595Z,10.16
2022-09-18T18:56:33.507Z,10.16
2022-09-18T18:59:02.928Z,10.11
2022-09-18T19:01:31.962Z,10.11
2022-09-18T19:04:01.790Z,10.05
2022-09-18T19:06:30.086Z,10.04
2022-09-18T19:09:01.064Z,10.02
2022-09-18T19:11:30.019Z,9.98
2022-09-18T19:13:59.829Z,10.00
2022-09-18T19:16:29.300Z,9.96
2022-09-18T19:19:00.220Z,9.99
2022-09-18T19:21:29.265Z,9.99
2022-09-18T19:23:59.867Z,9.98
2022-09-18T19:26:29.511Z,10.01
2022-09-18T19:28:59.105Z,10.00
2022-09-18T19:31:27.868Z,10.01
2022-09-18T19:33:56.124Z,10.03
2022-09-18T19:36:27.404Z,10.04
2022-09-18T19:38:56.986Z,10.11
2022-09-18T19:41:33.449Z,10.14
2022-09-18T19:44:03.061Z,10.13
2022-09-18T19:46:33.175Z,10.18
2022-09-18T19:49:01.160Z,10.12
2022-09-18T19:51:30.084Z,10.13
2022-09-18T19:53:57.942Z,10.14
2022-09-18T19:56:42.257Z,10.19
2022-09-18T19:59:11.017Z,10.19
2022-09-18T20:01:38.781Z,10.29
2022-09-18T20:04:06.716Z,10.31
2022-09-18T20:06:35.092Z,10.38
2022-09-18T20:09:02.821Z,10.36
2022-09-18T20:11:32.007Z,10.37
2022-09-18T20:13:59.754Z,10.32
2022-09-18T20:16:27.931Z,10.25
2022-09-18T20:18:55.777Z,10.19
2022-09-18T20:21:24.065Z,10.22
2022-09-18T20:23:57.664Z,10.21
2022-09-18T20:26:26.023Z,10.23
2022-09-18T20:28:55.370Z,10.17
2022-09-18T20:31:24.572Z,10.24
2022-09-18T20:33:55.575Z,10.24
2022-09-18T20:36:25.627Z,10.24
2022-09-18T20:38:57.798Z,10.31
2022-09-18T20:41:28.087Z,10.35
2022-09-18T20:43:59.245Z,10.37
2022-09-18T20:46:27.511Z,10.33
2022-09-18T20:48:55.961Z,10.33
2022-09-18T20:51:27.678Z,10.34
2022-09-18T20:53:57.264Z,10.34
2022-09-18T20:56:26.895Z,10.41
2022-09-18T20:58:54.836Z,10.43
2022-09-18T21:01:26.704Z,10.44
2022-09-18T21:03:57.057Z,10.49
2022-09-18T21:06:26.069Z,10.47
2022-09-18T21:08:55.507Z,10.43
2022-09-18T21:11:24.883Z,10.56
2022-09-18T21:13:55.756Z,10.58
2022-09-18T21:16:26.618Z,10.55
2022-09-18T21:18:57.643Z,10.52
2022-09-18T21:21:27.419Z,10.53
2022-09-18T21:23:58.461Z,10.44
2022-09-18T21:26:28.593Z,10.56
2022-09-18T21:28:58.204Z,10.55
2022-09-18T21:31:27.757Z,10.51
2022-09-18T21:33:55.827Z,10.47
2022-09-18T21:36:27.470Z,10.47
2022-09-18T21:38:56.195Z,10.42
2022-09-18T21:41:25.561Z,10.31
2022-09-18T21:43:54.076Z,10.20
2022-09-18T21:46:23.920Z,10.18
2022-09-18T21:48:56.316Z,10.09
2022-09-18T21:51:24.098Z,10.00
2022-09-18T21:53:51.822Z,10.00
2022-09-18T21:56:21.585Z,10.05
2022-09-18T21:58:50.230Z,9.93
2022-09-18T22:01:22.892Z,9.82
2022-09-18T22:03:55.487Z,9.63
2022-09-18T22:06:25.965Z,9.51
2022-09-18T22:08:56.324Z,9.26
2022-09-18T22:11:26.856Z,9.06
2022-09-18T22:13:55.659Z,8.94
2022-09-18T22:16:25.988Z,8.76
2022-09-18T22:18:55.139Z,8.69
2022-09-18T22:21:26.627Z,8.54
2022-09-18T22:23:55.983Z,8.54
2022-09-18T22:26:26.265Z,8.51
2022-09-18T22:28:56.447Z,8.48
2022-09-18T22:31:25.608Z,8.50
2022-09-18T22:33:57.650Z,8.37
2022-09-18T22:36:26.665Z,8.36
2022-09-18T22:38:54.756Z,8.36
2022-09-18T22:41:22.793Z,8.28
2022-09-18T22:43:54.449Z,8.23
2022-09-18T22:46:23.791Z,8.21
2022-09-18T22:48:51.832Z,8.20
2022-09-18T22:51:22.480Z,8.25
2022-09-18T22:53:54.172Z,8.36
2022-09-18T22:56:22.950Z,8.31
2022-09-18T22:58:52.280Z,8.32
2022-09-18T23:01:23.595Z,8.27
2022-09-18T23:03:53.692Z,8.26
2022-09-18T23:06:25.582Z,8.21
2022-09-18T23:08:53.873Z,8.20
2022-09-18T23:11:24.540Z,8.19
2022-09-18T23:13:54.123Z,8.19
2022-09-18T23:16:22.956Z,8.24
2022-09-18T23:18:53.151Z,8.24
2022-09-18T23:21:23.784Z,8.29
2022-09-18T23:23:51.523Z,8.18
2022-09-18T23:26:23.242Z,8.24
2022-09-18T23:28:52.634Z,8.20
2022-09-18T23:31:22.453Z,8.23
2022-09-18T23:33:52.704Z,8.23
2022-09-18T23:36:23.717Z,8.26
2022-09-18T23:38:55.516Z,8.34
2022-09-18T23:41:24.026Z,8.32
2022-09-18T23:43:53.700Z,8.39
2022-09-18T23:46:22.193Z,8.34
2022-09-18T23:48:54.938Z,8.32
2022-09-18T23:51:25.411Z,8.26
2022-09-18T23:53:53.802Z,8.22
2022-09-18T23:56:23.418Z,8.21
2022-09-18T23:58:55.296Z,8.17
